Aérodrome :







RETROUVEZ-NOUS SUR...

 
LOGIN :

S'inscrire | Disclaimer

   EN    FR    IT 

 









Légende :    VFR   VFR Marginal   IFR   IFR Intensif   IFR Très Intensif
Visi : 
Plafond : 
>= 8 km
>= 3000ft
5 à 8 km
1000 à 3000 ft
1500m à 5 km
500 à 1000 ft
800 à 1500m
200 à 500 ft
< 800m
< 200 ft
Symboles :   Orages  Brouillard  Fortes neiges  Fortes précipitations  Vent > 20 kt






- Altitude de l'aérodrome : 477 ft
- Code IATA : YHZ


CYHZ - Halifax Stanfield Int.

DERNIER METAR :
  • 241400Z 17007KT 5SM BR OVC003 M00/M00 A3010 RMK ST8 SLP201

METARs EXPIRÉS :
  • 241337Z 16008KT 3SM BR OVC002 M00/M00 A3010 RMK ST8 SLP202
  • 241321Z 17008KT 1 1/2SM BR OVC003 M00/M00 A3010 RMK SC8 SLP202
  • 241315Z 17008KT 1SM R23/P6000FT/N R14/P6000FT/N BR OVC003 M00/M00 A3010 RMK SC8 SLP201
  • 241300Z 18008KT 1/2SM R23/3000VP6000FT/U R14/5000VP6000FT/U FZFG VV003 M00/M00 A3010 RMK FG8 SLP200
  • 241211Z 17008KT 1/2SM R23/3500V5000FT/N R14/5000VP6000FT/U FZFG VV004 M00/M00 A3010 RMK FG8 SLP201

TAF AMD TAF CYHZ
Valide du 24 à 13h jusqu'au 25 à 12h UTC


241358Z 2413/2512 16008KT 3SM BR OVC002
TEMPO 2413/2415 6SM BR BKN006
FM241500 22010KT 4SM BR BKN006
BECMG 2415/2416 P6SM NSW SKC
FM250300 21010KT P6SM SKC
PROB30 2503/2512 3/4SM BR BKN003 RMK NXT FCST BY 241500Z



MET'MAP, la Météo Aéronautique d'un coup d'oeil ! - Copyright ORBIFLY Décembre 2007 - Disclaimer

ORBIFLY MET'MAP TEAM :

Programmation & Développement : Alexandra Zaïnal
Sur une idée originale de : Baudouin d'Aumeries
Assistance à la programmation : Marc-Olivier Méhu
Soutien technique & logistique : Manuel Goepfert

Contact : metmap@orbifly.com




SOURCES & CREDITS :

   NOAA